Time;durP1;ratioP1;P1;durP2;ratioP2;P2;SDS_P1;SDS_P2;PMS_P1;PMS_P2;Temp;Humidity;BMP_temperature;BMP_pressure;BME280_temperature;BME280_humidity;BME280_pressure;Samples;Min_cycle;Max_cycle;Signal;HPM_P1;HPM_P2
2024/04/14 00:01:42;;;;;;;7.63;2.93;;;16.40;99.90;;;;;;5506681;26;20477;-80
2024/04/14 00:04:11;;;;;;;7.20;3.50;;;16.40;99.90;;;;;;5504484;26;20510;-79
2024/04/14 00:06:39;;;;;;;6.70;3.17;;;16.40;99.90;;;;;;5504014;26;20468;-80
2024/04/14 00:09:08;;;;;;;6.07;2.40;;;16.40;99.90;;;;;;5503194;26;20481;-81
2024/04/14 00:11:34;;;;;;;9.80;4.77;;;16.30;99.90;;;;;;5503289;26;20510;-80
2024/04/14 00:14:02;;;;;;;13.43;2.70;;;16.30;99.90;;;;;;5504239;26;20887;-81
2024/04/14 00:16:28;;;;;;;5.43;3.30;;;16.30;99.90;;;;;;5501745;26;20462;-80
2024/04/14 00:18:57;;;;;;;3.73;2.10;;;16.30;99.90;;;;;;5502582;26;20457;-80
2024/04/14 00:21:23;;;;;;;6.37;2.73;;;16.40;99.90;;;;;;5493151;26;20519;-81
2024/04/14 00:23:54;;;;;;;6.03;3.00;;;16.40;99.90;;;;;;5486623;26;20508;-81
2024/04/14 00:26:20;;;;;;;6.90;3.23;;;16.40;99.90;;;;;;5493236;26;20464;-81
2024/04/14 00:28:49;;;;;;;8.27;3.97;;;16.40;99.90;;;;;;5507515;26;20463;-79
2024/04/14 00:31:15;;;;;;;8.47;3.50;;;16.40;99.90;;;;;;5501717;26;20560;-78
2024/04/14 00:33:44;;;;;;;7.10;3.60;;;16.30;99.90;;;;;;5506437;26;20465;-80
2024/04/14 00:36:10;;;;;;;6.50;2.23;;;16.30;99.90;;;;;;5506218;26;20629;-79
2024/04/14 00:38:38;;;;;;;4.97;2.50;;;16.20;99.90;;;;;;5508816;26;20464;-81
2024/04/14 00:41:07;;;;;;;5.00;2.47;;;16.10;99.90;;;;;;5507359;26;20500;-81
2024/04/14 00:43:35;;;;;;;7.37;3.40;;;16.20;99.90;;;;;;5502612;26;20227;-80
2024/04/14 00:46:02;;;;;;;5.03;2.70;;;16.20;99.90;;;;;;5502725;26;20525;-80
2024/04/14 00:48:30;;;;;;;7.43;2.60;;;16.20;99.90;;;;;;5513895;26;20527;-81
2024/04/14 00:50:57;;;;;;;14.37;4.23;;;16.20;99.90;;;;;;5507845;26;20474;-79
2024/04/14 00:53:26;;;;;;;12.70;3.63;;;16.20;99.90;;;;;;5515840;26;20467;-79
2024/04/14 00:55:52;;;;;;;3.03;2.00;;;16.20;99.90;;;;;;5501478;26;20542;-80
2024/04/14 00:58:24;;;;;;;3.33;2.07;;;16.10;99.90;;;;;;5518656;26;20461;-79
2024/04/14 01:00:50;;;;;;;4.40;3.23;;;16.00;99.90;;;;;;5501902;26;20528;-81
2024/04/14 01:03:18;;;;;;;7.30;3.10;;;16.00;99.90;;;;;;5507324;26;20473;-80
2024/04/14 01:05:44;;;;;;;7.80;2.67;;;16.00;99.90;;;;;;5511371;26;20464;-80
2024/04/14 01:08:14;;;;;;;7.90;3.83;;;16.00;99.90;;;;;;5540188;26;20523;-80
2024/04/14 01:10:40;;;;;;;7.78;2.75;;;16.00;99.90;;;;;;5516519;26;20277;-80
2024/04/14 01:13:09;;;;;;;8.00;3.10;;;15.90;99.90;;;;;;5500390;26;20246;-80
2024/04/14 01:15:37;;;;;;;5.40;2.77;;;15.90;99.90;;;;;;5500633;26;20458;-80
2024/04/14 01:18:06;;;;;;;4.60;2.33;;;16.00;99.90;;;;;;5517583;26;20464;-80
2024/04/14 01:20:34;;;;;;;6.30;2.65;;;16.00;99.90;;;;;;5513216;26;20471;-79
2024/04/14 01:23:03;;;;;;;3.40;2.20;;;16.00;99.90;;;;;;5508782;26;20544;-80
2024/04/14 01:25:31;;;;;;;4.20;2.67;;;16.00;99.90;;;;;;5502551;26;20470;-79
2024/04/14 01:28:00;;;;;;;7.80;2.77;;;16.00;99.90;;;;;;5518271;26;20481;-80
2024/04/14 01:30:27;;;;;;;11.70;3.33;;;16.00;99.90;;;;;;5490486;26;20473;-80
2024/04/14 01:32:56;;;;;;;6.27;2.77;;;15.90;99.90;;;;;;5503114;26;20462;-79
2024/04/14 01:35:22;;;;;;;7.37;3.10;;;15.80;99.90;;;;;;5501299;26;20464;-80
2024/04/14 01:37:53;;;;;;;10.60;2.93;;;15.80;99.90;;;;;;5503041;26;20547;-80
2024/04/14 01:40:19;;;;;;;7.47;2.97;;;15.80;99.90;;;;;;5503466;26;20528;-79
2024/04/14 01:42:50;;;;;;;8.40;3.63;;;15.80;99.90;;;;;;5515517;26;20226;-79
2024/04/14 01:45:17;;;;;;;8.88;3.78;;;15.80;99.90;;;;;;5508017;26;20465;-78
2024/04/14 01:47:45;;;;;;;7.50;3.00;;;15.70;99.90;;;;;;5512193;26;20281;-80
2024/04/14 01:50:11;;;;;;;8.57;4.38;;;15.70;99.90;;;;;;5517463;26;20462;-79
2024/04/14 01:52:40;;;;;;;8.00;3.60;;;15.70;99.90;;;;;;5528019;26;20269;-80
2024/04/14 01:55:07;;;;;;;10.63;3.47;;;15.70;99.90;;;;;;5501224;26;20463;-79
2024/04/14 01:57:35;;;;;;;7.28;3.58;;;15.70;99.90;;;;;;5500724;26;20282;-80
2024/04/14 02:00:05;;;;;;;5.20;2.75;;;15.60;99.90;;;;;;5501849;26;20230;-80
2024/04/14 02:02:34;;;;;;;8.13;2.88;;;15.60;99.90;;;;;;5499351;26;20222;-79
2024/04/14 02:05:00;;;;;;;6.70;2.90;;;15.40;99.90;;;;;;5513282;26;20224;-79
2024/04/14 02:07:29;;;;;;;4.93;2.73;;;15.30;99.90;;;;;;5506562;26;20278;-79
2024/04/14 02:09:55;;;;;;;10.13;2.35;;;15.40;99.90;;;;;;5506610;26;20532;-79
2024/04/14 02:12:23;;;;;;;7.43;2.77;;;15.30;99.90;;;;;;5484268;26;20227;-79
2024/04/14 02:14:49;;;;;;;8.48;3.20;;;15.30;99.90;;;;;;5495363;26;20542;-79
2024/04/14 02:17:20;;;;;;;4.80;2.60;;;15.20;99.90;;;;;;5540401;26;20226;-80
2024/04/14 02:19:46;;;;;;;6.53;2.75;;;15.20;99.90;;;;;;5503476;26;20524;-80
2024/04/14 02:22:15;;;;;;;9.60;3.20;;;15.10;99.90;;;;;;5496694;26;20574;-81
2024/04/14 02:24:41;;;;;;;8.15;2.65;;;15.00;99.90;;;;;;5515072;26;20468;-79
2024/04/14 02:27:09;;;;;;;8.70;2.63;;;15.00;99.90;;;;;;5502386;26;20234;-80
2024/04/14 02:29:35;;;;;;;7.30;3.42;;;14.90;99.90;;;;;;5507660;26;21041;-80
2024/04/14 02:32:04;;;;;;;6.57;2.73;;;14.70;99.90;;;;;;5505315;26;20223;-79
2024/04/14 02:34:32;;;;;;;9.73;3.20;;;14.60;99.90;;;;;;5505504;26;20467;-81
2024/04/14 02:37:01;;;;;;;8.75;2.50;;;14.60;99.90;;;;;;5504544;26;20262;-80
2024/04/14 02:39:27;;;;;;;15.60;3.30;;;14.50;99.90;;;;;;5491539;26;20703;-78
2024/04/14 02:41:55;;;;;;;6.57;2.97;;;14.40;99.90;;;;;;5506728;26;20239;-80
2024/04/14 02:44:21;;;;;;;7.18;2.20;;;14.40;99.90;;;;;;5504787;26;20227;-82
2024/04/14 02:46:50;;;;;;;6.40;2.60;;;14.40;99.90;;;;;;5503384;26;20277;-82
2024/04/14 02:49:16;;;;;;;7.75;3.17;;;14.30;99.90;;;;;;5504013;26;20239;-80
2024/04/14 02:51:47;;;;;;;7.70;2.85;;;14.20;99.90;;;;;;5501619;26;20330;-80
2024/04/14 02:54:13;;;;;;;6.47;2.75;;;14.10;99.90;;;;;;5505930;26;20285;-80
2024/04/14 02:56:42;;;;;;;10.17;2.50;;;14.10;99.90;;;;;;5514507;26;20235;-80
2024/04/14 02:59:08;;;;;;;12.23;2.60;;;14.00;99.90;;;;;;5493728;26;20464;-80
2024/04/14 03:01:36;;;;;;;5.37;2.90;;;14.00;99.90;;;;;;5507019;26;20297;-79
2024/04/14 03:04:02;;;;;;;10.68;2.97;;;13.90;99.90;;;;;;5507303;26;20993;-78
2024/04/14 03:06:31;;;;;;;11.00;2.40;;;13.90;99.90;;;;;;5507292;26;20273;-79
2024/04/14 03:08:59;;;;;;;6.60;3.05;;;13.90;99.90;;;;;;5511882;26;20508;-80
2024/04/14 03:11:28;;;;;;;5.35;2.83;;;13.80;99.90;;;;;;5496660;26;20231;-78
2024/04/14 03:13:54;;;;;;;7.97;2.78;;;13.80;99.90;;;;;;5512123;26;20227;-80
2024/04/14 03:16:23;;;;;;;13.70;3.53;;;13.80;99.90;;;;;;5510477;26;20887;-79
2024/04/14 03:18:49;;;;;;;7.95;2.22;;;13.80;99.90;;;;;;5508329;26;21013;-80
2024/04/14 03:21:17;;;;;;;8.30;3.53;;;13.80;99.90;;;;;;5504400;26;20235;-78
2024/04/14 03:23:43;;;;;;;6.10;2.55;;;13.80;99.90;;;;;;5505219;26;20235;-80
2024/04/14 03:26:14;;;;;;;6.97;2.27;;;13.80;99.90;;;;;;5499621;26;20275;-79
2024/04/14 03:28:40;;;;;;;9.77;3.22;;;13.80;99.90;;;;;;5505655;26;20513;-80
2024/04/14 03:31:09;;;;;;;7.60;1.90;;;13.70;99.90;;;;;;5505715;26;20239;-79
2024/04/14 03:33:35;;;;;;;4.22;2.35;;;13.60;99.90;;;;;;5504092;26;20520;-78
2024/04/14 03:36:04;;;;;;;11.55;2.35;;;13.60;99.90;;;;;;5518685;26;20242;-79
2024/04/14 03:38:33;;;;;;;8.18;2.80;;;13.50;99.90;;;;;;5505981;26;20269;-80
2024/04/14 03:41:02;;;;;;;8.80;2.70;;;13.50;99.90;;;;;;5506891;26;20231;-79
2024/04/14 03:43:33;;;;;;;9.25;3.03;;;13.40;99.90;;;;;;5505562;26;20256;-80
2024/04/14 03:46:02;;;;;;;13.15;3.17;;;13.30;99.90;;;;;;5506294;26;20761;-79
2024/04/14 03:48:30;;;;;;;8.15;2.33;;;13.30;99.90;;;;;;5493059;26;20231;-79
2024/04/14 03:50:57;;;;;;;7.45;2.25;;;13.20;99.90;;;;;;5505285;26;20384;-79
2024/04/14 03:53:26;;;;;;;6.25;3.00;;;13.10;99.90;;;;;;5505146;26;20286;-79
2024/04/14 03:55:54;;;;;;;5.68;1.30;;;13.00;99.90;;;;;;5506167;26;20235;-79
2024/04/14 03:58:20;;;;;;;6.50;2.00;;;13.00;99.90;;;;;;5503898;26;20285;-80
2024/04/14 04:00:51;;;;;;;6.67;2.27;;;12.90;99.90;;;;;;5519993;26;20623;-79
2024/04/14 04:03:17;;;;;;;9.40;2.00;;;12.90;99.90;;;;;;5519957;26;20472;-81
2024/04/14 04:05:55;;;;;;;12.10;2.83;;;12.90;99.90;;;;;;5504063;26;20231;-79
2024/04/14 04:08:21;;;;;;;9.68;3.00;;;12.90;99.90;;;;;;5502927;26;20476;-78
2024/04/14 04:10:59;;;;;;;7.88;2.00;;;12.80;99.90;;;;;;5504448;26;20231;-79
2024/04/14 04:13:26;;;;;;;7.70;2.10;;;12.80;99.90;;;;;;5511516;26;20230;-79
2024/04/14 04:15:59;;;;;;;4.25;1.92;;;12.70;99.90;;;;;;5504950;26;20231;-80
2024/04/14 04:18:26;;;;;;;7.53;1.98;;;12.70;99.90;;;;;;5504165;26;20273;-80
2024/04/14 04:20:56;;;;;;;6.80;2.38;;;12.60;99.90;;;;;;5503112;26;20274;-80
2024/04/14 04:23:22;;;;;;;7.25;2.55;;;12.60;99.90;;;;;;5518260;26;20239;-79
2024/04/14 04:25:50;;;;;;;8.10;2.10;;;12.50;99.90;;;;;;5502382;26;20282;-80
2024/04/14 04:28:16;;;;;;;9.52;2.25;;;12.40;99.90;;;;;;5503069;26;20524;-78
2024/04/14 04:30:45;;;;;;;5.67;2.63;;;12.40;99.90;;;;;;5504424;26;20239;-79
2024/04/14 04:33:13;;;;;;;3.42;1.85;;;12.30;99.90;;;;;;5501114;26;20505;-79
2024/04/14 04:35:42;;;;;;;7.97;2.53;;;12.30;99.90;;;;;;5500370;26;20273;-80
2024/04/14 04:38:08;;;;;;;6.47;1.75;;;12.30;99.90;;;;;;5502193;26;20270;-80
2024/04/14 04:40:36;;;;;;;8.07;2.77;;;12.30;99.90;;;;;;5502784;26;20239;-80
2024/04/14 04:43:02;;;;;;;13.23;2.45;;;12.20;99.90;;;;;;5502007;26;20528;-79
2024/04/14 04:45:31;;;;;;;7.73;2.93;;;12.20;99.90;;;;;;5460968;26;20251;-80
2024/04/14 04:47:57;;;;;;;6.63;1.67;;;12.20;99.90;;;;;;5497956;26;20456;-80
2024/04/14 04:50:28;;;;;;;6.03;1.80;;;12.10;99.90;;;;;;5498073;26;20236;-79
2024/04/14 04:52:54;;;;;;;6.55;2.20;;;12.20;99.90;;;;;;5500752;26;20460;-79
2024/04/14 04:55:22;;;;;;;13.07;2.90;;;12.20;99.90;;;;;;5500438;26;20269;-79
2024/04/14 04:57:48;;;;;;;10.50;3.45;;;12.30;99.90;;;;;;5502389;26;20572;-79
2024/04/14 05:00:17;;;;;;;4.50;1.43;;;12.30;99.90;;;;;;5501149;26;20242;-79
2024/04/14 05:02:43;;;;;;;9.85;2.20;;;12.30;99.90;;;;;;5501198;26;20468;-80
2024/04/14 05:05:12;;;;;;;12.20;2.90;;;12.40;99.90;;;;;;5501994;26;20279;-80
2024/04/14 05:07:41;;;;;;;9.02;2.53;;;12.40;99.90;;;;;;5503177;26;20515;-80
2024/04/14 05:10:09;;;;;;;18.27;2.97;;;12.50;99.90;;;;;;5502366;26;20282;-80
2024/04/14 05:12:35;;;;;;;4.95;1.90;;;12.50;99.90;;;;;;5506441;26;20235;-79
2024/04/14 05:15:04;;;;;;;13.97;3.00;;;12.60;99.90;;;;;;5489983;26;20283;-79
2024/04/14 05:17:30;;;;;;;3.67;1.52;;;12.50;99.90;;;;;;5485710;26;20456;-79
2024/04/14 05:19:59;;;;;;;10.83;1.90;;;12.60;99.90;;;;;;5501365;26;20290;-79
2024/04/14 05:22:25;;;;;;;8.25;2.17;;;12.50;99.90;;;;;;5501353;26;20524;-79
2024/04/14 05:24:56;;;;;;;6.87;3.33;;;12.50;99.90;;;;;;5500948;26;20235;-78
2024/04/14 05:27:22;;;;;;;4.72;2.67;;;12.50;99.90;;;;;;5494764;26;20456;-79
2024/04/14 05:29:51;;;;;;;11.10;2.92;;;12.50;99.90;;;;;;5493667;26;20322;-79
2024/04/14 05:32:17;;;;;;;17.85;2.90;;;12.60;99.90;;;;;;5502196;26;20278;-80
2024/04/14 05:34:46;;;;;;;6.70;3.87;;;12.60;99.90;;;;;;5503789;26;20235;-80
2024/04/14 05:37:12;;;;;;;11.13;1.95;;;12.80;99.90;;;;;;5507783;26;20499;-78
2024/04/14 05:39:40;;;;;;;6.33;2.57;;;12.80;99.90;;;;;;5509837;26;20231;-79
2024/04/14 05:42:09;;;;;;;15.15;3.58;;;13.00;99.90;;;;;;5509547;26;20464;-79
2024/04/14 05:44:38;;;;;;;7.57;4.25;;;13.20;99.90;;;;;;5511624;26;20289;-79
2024/04/14 05:47:04;;;;;;;7.82;2.50;;;13.70;99.90;;;;;;5509656;26;20236;-80
2024/04/14 05:49:33;;;;;;;9.73;2.75;;;14.40;99.90;;;;;;5511136;26;20219;-77
2024/04/14 05:51:58;;;;;;;10.13;2.65;;;15.10;99.90;;;;;;5509644;26;20258;-80
2024/04/14 05:54:31;;;;;;;9.40;2.47;;;15.20;99.90;;;;;;5506072;26;20238;-77
2024/04/14 05:56:57;;;;;;;10.82;3.83;;;15.10;99.90;;;;;;5500121;26;20503;-80
2024/04/14 05:59:28;;;;;;;12.20;3.03;;;14.90;99.90;;;;;;5501469;26;20315;-79
2024/04/14 06:01:54;;;;;;;7.47;2.17;;;14.70;99.90;;;;;;5501340;26;20497;-79
2024/04/14 06:04:22;;;;;;;7.03;2.23;;;14.50;99.90;;;;;;5502610;26;20219;-79
2024/04/14 06:06:50;;;;;;;12.30;3.25;;;14.40;99.90;;;;;;5499431;26;20444;-78
2024/04/14 06:09:18;;;;;;;10.00;2.35;;;14.50;99.90;;;;;;5497301;26;20239;-80
2024/04/14 06:11:44;;;;;;;7.97;2.58;;;14.60;99.90;;;;;;5497538;26;20231;-79
2024/04/14 06:14:13;;;;;;;9.97;2.97;;;14.70;99.90;;;;;;5496013;26;20285;-79
2024/04/14 06:16:42;;;;;;;8.52;1.85;;;14.60;97.90;;;;;;5496474;26;20444;-80
2024/04/14 06:19:10;;;;;;;5.93;1.70;;;14.60;97.70;;;;;;5497119;26;20247;-79
2024/04/14 06:21:37;;;;;;;9.52;1.73;;;14.70;97.50;;;;;;5496107;26;20228;-79
2024/04/14 06:24:10;;;;;;;5.15;2.20;;;15.00;97.30;;;;;;5487834;26;20276;-82
2024/04/14 06:26:37;;;;;;;8.97;3.00;;;15.50;96.70;;;;;;5482659;26;20232;-81
2024/04/14 06:29:08;;;;;;;10.20;3.13;;;15.80;95.80;;;;;;5484412;26;20538;-80
2024/04/14 06:31:35;;;;;;;8.63;2.10;;;16.40;95.10;;;;;;5481897;26;20549;-80
2024/04/14 06:34:06;;;;;;;11.83;2.97;;;17.10;94.20;;;;;;5495101;26;20475;-80
2024/04/14 06:36:32;;;;;;;8.30;2.83;;;17.20;93.00;;;;;;5479812;26;20869;-80
2024/04/14 06:39:01;;;;;;;8.37;2.23;;;17.70;92.90;;;;;;5494530;26;20475;-81
2024/04/14 06:41:27;;;;;;;8.50;2.37;;;18.30;92.10;;;;;;5493283;26;20480;-81
2024/04/14 06:43:55;;;;;;;13.77;3.30;;;18.60;91.00;;;;;;5492379;26;20584;-82
2024/04/14 06:46:22;;;;;;;8.83;2.57;;;18.30;90.90;;;;;;5491072;26;20522;-81
2024/04/14 06:48:51;;;;;;;11.73;4.50;;;17.60;91.30;;;;;;5494360;26;21001;-82
2024/04/14 06:51:19;;;;;;;8.00;3.40;;;17.60;91.90;;;;;;5486643;26;20460;-82
2024/04/14 06:53:48;;;;;;;9.47;3.03;;;17.60;91.60;;;;;;5493289;26;20524;-82
2024/04/14 06:56:23;;;;;;;9.83;1.93;;;17.80;91.60;;;;;;5478500;26;20612;-83
2024/04/14 06:58:58;;;;;;;12.70;3.57;;;18.00;91.00;;;;;;5493770;26;20464;-82
2024/04/14 07:01:25;;;;;;;6.03;2.40;;;18.60;90.40;;;;;;5493697;26;20468;-82
2024/04/14 07:03:58;;;;;;;12.70;2.40;;;19.10;89.40;;;;;;5493536;26;20519;-83
2024/04/14 07:13:45;;;;;;;8.87;2.30;;;20.10;86.20;;;;;;5211211;27;20480;-83
2024/04/14 07:19:35;;;;;;;7.90;3.10;;;21.70;82.70;;;;;;5247888;27;20484;-81
2024/04/14 07:22:23;;;;;;;7.60;2.13;;;21.70;81.00;;;;;;5249800;27;20524;-81
2024/04/14 07:24:54;;;;;;;6.60;2.40;;;21.70;80.80;;;;;;5284827;27;20463;-83
2024/04/14 07:27:47;;;;;;;4.27;1.97;;;22.10;81.10;;;;;;5354485;26;20492;-81
2024/04/14 07:37:20;;;;;;;7.67;2.03;;;20.10;79.70;;;;;;5452507;26;20654;-81
2024/04/14 07:39:46;;;;;;;6.87;2.33;;;19.60;81.90;;;;;;5472778;26;20534;-80
2024/04/14 07:42:20;;;;;;;7.07;2.00;;;19.40;81.90;;;;;;5456012;26;20466;-84
2024/04/14 07:45:45;;;;;;;7.47;2.30;;;19.00;83.00;;;;;;5441236;26;20466;-83
2024/04/14 07:51:06;;;;;;;6.07;2.60;;;18.60;84.20;;;;;;5465154;26;20531;-81
2024/04/14 07:53:46;;;;;;;4.60;2.27;;;18.40;85.00;;;;;;5465490;26;20496;-85
2024/04/14 07:56:15;;;;;;;8.53;2.27;;;18.30;85.20;;;;;;5465644;26;20469;-83
2024/04/14 07:58:41;;;;;;;9.17;2.23;;;18.30;85.30;;;;;;5467243;26;20489;-83
2024/04/14 08:01:10;;;;;;;7.53;2.30;;;18.50;85.70;;;;;;5462232;26;20527;-81
2024/04/14 08:03:42;;;;;;;3.40;1.77;;;18.60;84.20;;;;;;5462220;26;20465;-82
2024/04/14 08:06:11;;;;;;;9.10;2.60;;;19.30;84.30;;;;;;5459097;26;20474;-79
2024/04/14 08:09:04;;;;;;;6.77;2.13;;;20.10;82.70;;;;;;5463267;26;20528;-83
2024/04/14 08:11:34;;;;;;;6.87;2.80;;;20.90;80.20;;;;;;5476358;26;20465;-83
2024/04/14 08:14:08;;;;;;;9.00;2.70;;;22.10;78.50;;;;;;5470978;26;20450;-84
2024/04/14 08:16:37;;;;;;;5.83;2.40;;;22.90;76.00;;;;;;5475972;26;20454;-82
2024/04/14 08:19:03;;;;;;;7.23;2.43;;;23.10;74.10;;;;;;5490495;21;20513;-69
2024/04/14 08:21:32;;;;;;;5.20;2.00;;;23.30;73.10;;;;;;5481252;26;20476;-68
2024/04/14 08:23:58;;;;;;;12.57;2.77;;;23.10;70.40;;;;;;5489774;26;20464;-67
2024/04/14 08:26:29;;;;;;;5.37;2.23;;;22.70;71.70;;;;;;5477554;26;21100;-69
2024/04/14 08:28:55;;;;;;;6.50;1.90;;;22.60;71.50;;;;;;5480185;26;20466;-69
2024/04/14 08:31:24;;;;;;;5.50;2.60;;;22.20;71.50;;;;;;5468807;26;20530;-68
2024/04/14 08:33:50;;;;;;;9.23;2.17;;;22.30;72.40;;;;;;5475144;26;20469;-70
2024/04/14 08:36:18;;;;;;;4.70;1.80;;;22.10;70.70;;;;;;5473386;26;20464;-69
2024/04/14 08:38:45;;;;;;;6.70;2.00;;;21.60;71.30;;;;;;5480705;26;20460;-69
2024/04/14 08:41:18;;;;;;;8.13;2.63;;;21.70;72.30;;;;;;5469766;26;20477;-67
2024/04/14 08:43:47;;;;;;;3.30;1.50;;;22.40;72.50;;;;;;5466737;26;20470;-68
2024/04/14 08:46:17;;;;;;;7.30;2.40;;;22.70;68.90;;;;;;5471224;26;21001;-69
2024/04/14 08:48:46;;;;;;;3.20;1.43;;;22.30;69.70;;;;;;5476175;26;20596;-68
2024/04/14 08:51:16;;;;;;;11.83;2.60;;;22.20;70.10;;;;;;5468634;26;20509;-66
2024/04/14 08:53:44;;;;;;;8.03;2.40;;;22.60;69.50;;;;;;5477169;26;20819;-68
2024/04/14 08:56:13;;;;;;;4.07;1.70;;;22.90;68.70;;;;;;5476165;26;20624;-68
2024/04/14 08:58:42;;;;;;;2.67;1.80;;;23.10;67.90;;;;;;5479647;26;20516;-68
2024/04/14 09:01:16;;;;;;;5.17;2.47;;;23.20;66.30;;;;;;5468605;26;20475;-68
2024/04/14 09:03:42;;;;;;;6.73;2.23;;;23.10;65.40;;;;;;5477553;26;20468;-69
2024/04/14 09:06:12;;;;;;;5.53;2.80;;;23.00;66.30;;;;;;5469740;26;20469;-68
2024/04/14 09:08:38;;;;;;;3.47;1.93;;;23.60;65.50;;;;;;5477336;26;20570;-68
2024/04/14 09:11:07;;;;;;;6.00;2.60;;;23.60;64.20;;;;;;5478443;26;20533;-71
2024/04/14 09:13:33;;;;;;;6.97;2.37;;;23.80;65.00;;;;;;5478142;26;20480;-72
2024/04/14 09:16:02;;;;;;;4.63;2.60;;;22.90;67.20;;;;;;5477534;26;21307;-71
2024/04/14 09:18:31;;;;;;;7.00;2.93;;;22.10;67.40;;;;;;5475660;26;20460;-69
2024/04/14 09:20:59;;;;;;;11.03;2.77;;;21.60;68.10;;;;;;5506877;26;20474;-71
2024/04/14 09:23:25;;;;;;;3.30;2.40;;;21.20;69.10;;;;;;5516124;26;20800;-70
2024/04/14 09:25:54;;;;;;;5.90;2.60;;;21.00;69.10;;;;;;5513346;26;20520;-71
2024/04/14 09:28:20;;;;;;;4.57;2.57;;;20.90;69.20;;;;;;5523929;26;20463;-72
2024/04/14 09:30:49;;;;;;;5.47;2.40;;;20.40;69.10;;;;;;5515298;26;21001;-72
2024/04/14 09:33:15;;;;;;;2.90;2.50;;;20.30;69.60;;;;;;5523450;26;20472;-72
2024/04/14 09:35:50;;;;;;;8.37;2.03;;;20.40;69.40;;;;;;5510988;26;20513;-70
2024/04/14 09:38:18;;;;;;;5.50;2.57;;;20.00;69.50;;;;;;5523768;26;20511;-71
2024/04/14 09:40:46;;;;;;;8.73;2.57;;;19.70;70.90;;;;;;5525425;26;20459;-70
2024/04/14 09:43:13;;;;;;;3.20;2.70;;;19.70;71.10;;;;;;5524739;26;20515;-71
2024/04/14 09:45:42;;;;;;;7.27;2.23;;;20.00;72.00;;;;;;5518351;26;20521;-70
2024/04/14 09:48:09;;;;;;;7.40;2.50;;;19.80;72.20;;;;;;5504558;26;20468;-71
2024/04/14 09:50:41;;;;;;;6.00;2.73;;;20.00;73.50;;;;;;5510087;26;20609;-71
2024/04/14 09:53:11;;;;;;;3.80;2.10;;;20.60;72.50;;;;;;5519181;26;20470;-71
2024/04/14 09:55:39;;;;;;;5.77;2.17;;;20.80;71.70;;;;;;5520049;26;20464;-71
2024/04/14 09:58:06;;;;;;;5.97;2.90;;;20.90;70.80;;;;;;5524875;26;20477;-72
2024/04/14 10:00:35;;;;;;;5.90;2.70;;;20.90;71.10;;;;;;5525247;26;20602;-71
2024/04/14 10:03:06;;;;;;;7.37;2.10;;;20.90;71.30;;;;;;5525787;26;20475;-71
2024/04/14 10:05:37;;;;;;;7.43;2.27;;;20.50;70.30;;;;;;5524477;26;20511;-73
2024/04/14 10:08:04;;;;;;;5.47;3.00;;;20.50;72.10;;;;;;5526282;26;20468;-68
2024/04/14 10:10:36;;;;;;;2.17;1.77;;;20.80;71.20;;;;;;5525601;26;20470;-71
2024/04/14 10:13:07;;;;;;;6.90;2.60;;;20.80;70.80;;;;;;5525077;26;20781;-70
2024/04/14 10:15:36;;;;;;;5.37;2.23;;;20.60;71.40;;;;;;5511719;26;20463;-69
2024/04/14 10:18:14;;;;;;;4.67;2.17;;;19.90;72.40;;;;;;5512099;26;20461;-70
2024/04/14 10:20:44;;;;;;;5.40;2.47;;;19.60;74.20;;;;;;5513305;25;20457;-71
2024/04/14 10:23:15;;;;;;;6.67;2.50;;;19.90;73.00;;;;;;5525414;26;20611;-70
2024/04/14 10:25:52;;;;;;;5.00;2.00;;;19.40;72.90;;;;;;5523377;26;20470;-69
2024/04/14 10:28:19;;;;;;;4.70;2.47;;;18.90;73.80;;;;;;5492714;26;20523;-71
2024/04/14 10:30:49;;;;;;;7.20;2.13;;;18.80;75.10;;;;;;5524982;26;20571;-72
2024/04/14 10:33:20;;;;;;;8.97;2.97;;;18.90;75.70;;;;;;5525383;26;20482;-69
2024/04/14 10:35:49;;;;;;;7.63;2.53;;;18.70;76.00;;;;;;5512255;26;20519;-71
2024/04/14 10:38:20;;;;;;;5.60;2.07;;;18.50;75.50;;;;;;5525100;26;20534;-71
2024/04/14 10:40:51;;;;;;;8.63;2.20;;;18.20;75.70;;;;;;5526195;26;20521;-69
2024/04/14 10:43:23;;;;;;;9.13;3.30;;;17.70;77.60;;;;;;5526215;26;20481;-68
2024/04/14 10:45:51;;;;;;;5.53;2.47;;;17.30;78.50;;;;;;5516566;26;20465;-69
2024/04/14 10:48:18;;;;;;;4.83;2.93;;;17.20;79.20;;;;;;5530342;26;21066;-68
2024/04/14 10:50:47;;;;;;;5.10;3.37;;;17.00;79.80;;;;;;5531830;26;21064;-68
2024/04/14 10:53:13;;;;;;;8.30;2.53;;;17.20;79.90;;;;;;5535629;26;20471;-70
2024/04/14 10:55:42;;;;;;;3.93;2.33;;;17.00;78.50;;;;;;5513991;26;20471;-71
2024/04/14 10:58:11;;;;;;;3.50;2.10;;;16.90;79.30;;;;;;5528407;26;20869;-70
2024/04/14 11:00:40;;;;;;;4.00;2.40;;;17.30;80.40;;;;;;5513692;26;20578;-68
2024/04/14 11:03:06;;;;;;;5.07;2.60;;;17.60;78.00;;;;;;5501087;21;20626;-79
2024/04/14 11:05:36;;;;;;;6.50;2.23;;;17.80;77.00;;;;;;5413572;26;20509;-79
2024/04/14 11:08:03;;;;;;;3.20;2.00;;;17.80;76.90;;;;;;5418412;26;20523;-80
2024/04/14 11:10:33;;;;;;;3.20;2.03;;;17.80;77.80;;;;;;5428890;26;20537;-79
2024/04/14 11:12:59;;;;;;;3.73;2.00;;;18.00;77.90;;;;;;5422851;26;20467;-78
2024/04/14 11:15:31;;;;;;;4.87;2.00;;;18.00;76.30;;;;;;5418424;26;20598;-79
2024/04/14 11:17:57;;;;;;;4.40;2.20;;;17.90;78.00;;;;;;5414095;26;20384;-78
2024/04/14 11:20:25;;;;;;;8.57;2.97;;;18.00;77.60;;;;;;5435452;26;20237;-79
2024/04/14 11:22:52;;;;;;;2.80;1.93;;;17.90;78.40;;;;;;5415332;26;20600;-81
2024/04/14 11:25:20;;;;;;;2.90;1.73;;;18.00;77.80;;;;;;5425970;26;20561;-84
2024/04/14 11:27:49;;;;;;;4.90;2.03;;;18.10;75.60;;;;;;5414714;26;20475;-84
2024/04/14 11:30:18;;;;;;;8.03;2.30;;;17.80;74.70;;;;;;5424340;26;20551;-83
2024/04/14 11:32:47;;;;;;;4.97;2.07;;;18.10;75.80;;;;;;5407778;26;20520;-82
2024/04/14 11:35:20;;;;;;;5.40;2.20;;;18.30;74.90;;;;;;5409106;26;20467;-85
2024/04/14 11:37:50;;;;;;;4.03;2.10;;;18.60;74.60;;;;;;5410193;26;20472;-83
2024/04/14 11:40:21;;;;;;;4.33;1.70;;;18.70;76.20;;;;;;5414175;26;20518;-82
2024/04/14 11:42:47;;;;;;;6.53;2.40;;;18.60;75.30;;;;;;5414671;26;20531;-84
2024/04/14 11:45:16;;;;;;;4.83;2.10;;;18.10;75.10;;;;;;5437186;26;20461;-82
2024/04/14 11:47:42;;;;;;;6.30;2.33;;;17.60;77.10;;;;;;5407056;26;20528;-81
2024/04/14 11:50:13;;;;;;;3.00;2.07;;;17.80;76.80;;;;;;5406462;26;20431;-81
2024/04/14 11:52:40;;;;;;;4.10;2.13;;;18.00;75.20;;;;;;5406449;26;20461;-81
2024/04/14 11:55:10;;;;;;;5.13;2.40;;;18.00;75.20;;;;;;5406985;26;20536;-80
2024/04/14 11:57:36;;;;;;;20.13;2.87;;;17.80;76.10;;;;;;5406401;26;20459;-81
2024/04/14 12:00:05;;;;;;;6.63;2.27;;;17.70;75.80;;;;;;5418391;26;20452;-82
2024/04/14 12:02:31;;;;;;;9.43;2.53;;;17.70;75.40;;;;;;5413442;26;20528;-79
2024/04/14 12:05:00;;;;;;;7.83;2.07;;;17.50;76.30;;;;;;5413437;26;20476;-80
2024/04/14 12:07:28;;;;;;;5.63;2.53;;;17.50;75.70;;;;;;5425452;26;20458;-80
2024/04/14 12:09:57;;;;;;;4.90;1.90;;;17.80;74.70;;;;;;5433215;26;20455;-80
2024/04/14 12:12:23;;;;;;;3.60;2.00;;;17.90;75.80;;;;;;5416586;26;20468;-80
2024/04/14 12:14:52;;;;;;;5.43;2.17;;;18.10;75.10;;;;;;5410553;26;20468;-80
2024/04/14 12:17:18;;;;;;;5.70;2.50;;;17.90;73.80;;;;;;5423407;26;20519;-79
2024/04/14 12:19:47;;;;;;;2.47;1.87;;;17.90;74.00;;;;;;5423915;26;20460;-80
2024/04/14 12:22:14;;;;;;;4.97;2.50;;;17.70;73.90;;;;;;5433131;26;20515;-80
2024/04/14 12:24:45;;;;;;;5.70;2.63;;;17.30;74.10;;;;;;5408410;26;20546;-80
2024/04/14 12:27:11;;;;;;;3.80;2.40;;;17.20;75.30;;;;;;5435345;26;20462;-80
2024/04/14 12:29:43;;;;;;;5.00;2.10;;;17.40;75.70;;;;;;5429813;26;20533;-79
2024/04/14 12:32:09;;;;;;;7.70;2.10;;;17.60;75.60;;;;;;5427953;26;20457;-79
2024/04/14 12:34:38;;;;;;;6.80;2.50;;;17.80;75.00;;;;;;5411913;26;20529;-80
2024/04/14 12:37:04;;;;;;;3.20;1.73;;;17.60;74.80;;;;;;5409995;26;20539;-80
2024/04/14 12:39:32;;;;;;;5.00;2.67;;;17.50;74.90;;;;;;5411418;26;20924;-82
2024/04/14 12:42:01;;;;;;;4.30;2.30;;;17.00;74.90;;;;;;5415877;26;20522;-82
2024/04/14 12:44:30;;;;;;;4.97;2.77;;;17.20;76.00;;;;;;5418571;26;20478;-82
2024/04/14 12:46:56;;;;;;;6.50;2.50;;;17.50;76.10;;;;;;5440293;26;20522;-82
2024/04/14 12:49:26;;;;;;;3.60;2.13;;;17.40;75.40;;;;;;5436158;26;20471;-80
2024/04/14 12:51:52;;;;;;;4.47;2.47;;;17.30;75.20;;;;;;5409317;26;20460;-81
2024/04/14 12:54:21;;;;;;;4.63;3.00;;;17.30;75.90;;;;;;5428660;26;20473;-81
2024/04/14 12:56:47;;;;;;;4.80;3.00;;;17.30;76.40;;;;;;5405633;26;20465;-79
2024/04/14 12:59:18;;;;;;;5.33;2.03;;;17.50;75.90;;;;;;5416447;26;20579;-81
2024/04/14 13:01:44;;;;;;;6.73;2.40;;;17.60;74.90;;;;;;5411402;26;20456;-81
2024/04/14 13:04:13;;;;;;;5.30;2.70;;;17.70;76.10;;;;;;5402982;26;20479;-82
2024/04/14 13:06:39;;;;;;;5.90;2.40;;;17.20;76.00;;;;;;5421604;26;20461;-81
2024/04/14 13:09:09;;;;;;;3.57;2.03;;;17.10;77.10;;;;;;5423060;26;20532;-82
2024/04/14 13:11:35;;;;;;;4.23;1.93;;;17.10;77.50;;;;;;5430493;26;20494;-81
2024/04/14 13:14:03;;;;;;;6.23;2.27;;;17.30;77.00;;;;;;5400010;26;20467;-82